LFAT

Le Touquet-Côte d'Opale Airport

Airport
ICAO code
LFAT
IATA Code
LTQ
Summary
ICAO Region
EUR
ICAO Territory
Location

, Nord-Pas-de-Calais

Serving
Le Tourquet
Elevation
36 ft
Coordinates
50° 31' 3" N , 1° 37' 14" E
Metar
Observation
LFAT 091830Z AUTO 03011KT 9999 -DZ FEW034 BKN046 OVC068 02/01 Q1007
Station
Le Touquet
Date/Time
2022-12-09 18:30:00
Wind direction
30°
Wind speed
11 kts
Lowest cloud amount
few clouds
Temperature
2°C
Dew point
1°C
Humidity
93%
QNH
1007 hPa
Weather condition
light drizzle

Runways

Designator Length Width Surface Rops
6/24 0 0 UNK No/No
14/32 1850 40 ASP No/No

Airport map

Aerial View

SKYbrary Partners:

Safety knowledge contributed by: